Overview Statistics Trail Chart Weather Telemetry Raw packets
 

This is the latest recevied weather packets stored in our database for station/object K0QED. If no packets are shown the sender has not sent any weather packets the latest 10 day(s).

<< 41 42 43 44 45 46 47 >>
Time Temp. Humidity Pressure Rain* Wind** Luminosity Snow
1788343264 16.67° C 56% 1024.7 hPa 0 mm - 0 W/m² -
1788342963 16.67° C 56% 1024.6 hPa 0 mm - 0 W/m² -
1788342662 16.67° C 55% 1024.7 hPa 0 mm - 0 W/m² -
1788342357 17.22° C 55% 1024.5 hPa 0 mm - 0 W/m² -
1788342054 16.67° C 54% 1024.9 hPa 0 mm - 0 W/m² -
1788341748 16.67° C 55% 1024.9 hPa 0 mm - 0 W/m² -
1788341443 16.67° C 57% 1024.9 hPa 0 mm - 0 W/m² -
1788341138 16.67° C 58% 1024.7 hPa 0 mm - 0 W/m² -
1788340833 16.11° C 59% 1025 hPa 0 mm - 0 W/m² -
1788340528 15.56° C 62% 1024.7 hPa 0 mm - 0 W/m² -
1788340224 14.44° C 66% 1025 hPa 0 mm - 0 W/m² -
1788339920 13.89° C 73% 1024.9 hPa 0 mm - 0 W/m² -
1788339619 13.89° C 76% 1024.7 hPa 0 mm - 0 W/m² -
1788339319 13.89° C 79% 1024.6 hPa 0 mm - 0 W/m² -
1788339014 13.89° C 80% 1025 hPa 0 mm - 0 W/m² -
1788338710 13.33° C 81% 1025.2 hPa 0 mm - 0 W/m² -
1788338405 13.33° C 82% 1024.7 hPa 0 mm - 0 W/m² -
1788338101 13.33° C 83% 1024.9 hPa 0 mm - 0 W/m² -
1788337795 13.89° C 82% 1025.1 hPa 0 mm - 0 W/m² -
1788337491 13.89° C 83% 1024.9 hPa 0 mm - 0 W/m² -
1788337187 13.89° C 83% 1024.7 hPa 0 mm - 0 W/m² -
1788336883 13.89° C 82% 1024.7 hPa 0 mm - 0 W/m² -
1788336578 13.33° C 84% 1024.9 hPa 0 mm - 0 W/m² -
1788336274 13.33° C 84% 1025.1 hPa 0 mm - 0 W/m² -
1788335973 13.33° C 85% 1025 hPa 0 mm - 0 W/m² -

* Rain latest hour (hover to see other rain measurements)
** Current wind speed in m/s (hover to see current wind gust speed)